sensor_id;sensor_type;location;lat;lon;timestamp;P1;durP1;ratioP1;P2;durP2;ratioP2
22841;SDS011;11587;47.064;15.444;2023-05-20T00:00:37;0.10;;;0.10;;
22841;SDS011;11587;47.064;15.444;2023-05-20T00:03:03;0.20;;;0.20;;
22841;SDS011;11587;47.064;15.444;2023-05-20T00:05:29;0.20;;;0.20;;
22841;SDS011;11587;47.064;15.444;2023-05-20T00:07:55;0.20;;;0.20;;
22841;SDS011;11587;47.064;15.444;2023-05-20T00:10:21;0.10;;;0.10;;
22841;SDS011;11587;47.064;15.444;2023-05-20T00:12:47;0.20;;;0.20;;
22841;SDS011;11587;47.064;15.444;2023-05-20T00:15:13;0.10;;;0.10;;
22841;SDS011;11587;47.064;15.444;2023-05-20T00:17:39;0.20;;;0.20;;
22841;SDS011;11587;47.064;15.444;2023-05-20T00:20:06;0.20;;;0.20;;
22841;SDS011;11587;47.064;15.444;2023-05-20T00:22:32;0.10;;;0.10;;
22841;SDS011;11587;47.064;15.444;2023-05-20T00:24:58;0.20;;;0.20;;
22841;SDS011;11587;47.064;15.444;2023-05-20T00:27:24;0.20;;;0.20;;
22841;SDS011;11587;47.064;15.444;2023-05-20T00:29:50;0.20;;;0.20;;
22841;SDS011;11587;47.064;15.444;2023-05-20T00:32:16;0.10;;;0.10;;
22841;SDS011;11587;47.064;15.444;2023-05-20T00:34:42;0.10;;;0.10;;
22841;SDS011;11587;47.064;15.444;2023-05-20T00:37:08;0.10;;;0.10;;
22841;SDS011;11587;47.064;15.444;2023-05-20T00:39:34;0.20;;;0.20;;
22841;SDS011;11587;47.064;15.444;2023-05-20T00:42:00;0.13;;;0.13;;
22841;SDS011;11587;47.064;15.444;2023-05-20T00:44:27;0.15;;;0.15;;
22841;SDS011;11587;47.064;15.444;2023-05-20T00:46:53;0.10;;;0.10;;
22841;SDS011;11587;47.064;15.444;2023-05-20T00:49:20;0.20;;;0.20;;
22841;SDS011;11587;47.064;15.444;2023-05-20T00:51:47;0.20;;;0.20;;
22841;SDS011;11587;47.064;15.444;2023-05-20T00:54:14;0.20;;;0.20;;
22841;SDS011;11587;47.064;15.444;2023-05-20T00:56:40;0.20;;;0.20;;
22841;SDS011;11587;47.064;15.444;2023-05-20T00:59:06;0.10;;;0.10;;
22841;SDS011;11587;47.064;15.444;2023-05-20T01:01:33;0.10;;;0.10;;
22841;SDS011;11587;47.064;15.444;2023-05-20T01:03:59;0.20;;;0.20;;
22841;SDS011;11587;47.064;15.444;2023-05-20T01:06:25;0.15;;;0.15;;
22841;SDS011;11587;47.064;15.444;2023-05-20T01:08:52;0.10;;;0.10;;
22841;SDS011;11587;47.064;15.444;2023-05-20T01:13:46;0.20;;;0.20;;
22841;SDS011;11587;47.064;15.444;2023-05-20T01:16:13;0.20;;;0.20;;
22841;SDS011;11587;47.064;15.444;2023-05-20T01:18:39;0.17;;;0.17;;
22841;SDS011;11587;47.064;15.444;2023-05-20T01:21:06;0.17;;;0.17;;
22841;SDS011;11587;47.064;15.444;2023-05-20T01:23:37;0.20;;;0.20;;
22841;SDS011;11587;47.064;15.444;2023-05-20T01:26:04;0.10;;;0.10;;
22841;SDS011;11587;47.064;15.444;2023-05-20T01:28:30;0.20;;;0.20;;
22841;SDS011;11587;47.064;15.444;2023-05-20T01:30:57;0.15;;;0.15;;
22841;SDS011;11587;47.064;15.444;2023-05-20T01:33:24;0.20;;;0.20;;
22841;SDS011;11587;47.064;15.444;2023-05-20T01:35:52;0.10;;;0.10;;
22841;SDS011;11587;47.064;15.444;2023-05-20T01:38:18;0.10;;;0.10;;
22841;SDS011;11587;47.064;15.444;2023-05-20T01:40:45;0.20;;;0.20;;
22841;SDS011;11587;47.064;15.444;2023-05-20T01:43:11;0.10;;;0.10;;
22841;SDS011;11587;47.064;15.444;2023-05-20T01:45:40;0.20;;;0.20;;
22841;SDS011;11587;47.064;15.444;2023-05-20T01:48:08;0.10;;;0.10;;
22841;SDS011;11587;47.064;15.444;2023-05-20T01:50:34;0.10;;;0.10;;
22841;SDS011;11587;47.064;15.444;2023-05-20T01:53:00;0.15;;;0.15;;
22841;SDS011;11587;47.064;15.444;2023-05-20T01:55:26;0.10;;;0.10;;
22841;SDS011;11587;47.064;15.444;2023-05-20T01:57:52;0.20;;;0.20;;
22841;SDS011;11587;47.064;15.444;2023-05-20T02:00:18;0.10;;;0.10;;
22841;SDS011;11587;47.064;15.444;2023-05-20T02:02:44;0.10;;;0.10;;
22841;SDS011;11587;47.064;15.444;2023-05-20T02:05:10;0.20;;;0.20;;
22841;SDS011;11587;47.064;15.444;2023-05-20T02:07:36;0.20;;;0.20;;
22841;SDS011;11587;47.064;15.444;2023-05-20T02:10:02;0.20;;;0.20;;
22841;SDS011;11587;47.064;15.444;2023-05-20T02:12:28;0.10;;;0.10;;
22841;SDS011;11587;47.064;15.444;2023-05-20T02:14:54;0.10;;;0.10;;
22841;SDS011;11587;47.064;15.444;2023-05-20T02:17:21;0.15;;;0.15;;
22841;SDS011;11587;47.064;15.444;2023-05-20T02:19:47;0.10;;;0.10;;
22841;SDS011;11587;47.064;15.444;2023-05-20T02:22:13;0.10;;;0.10;;
22841;SDS011;11587;47.064;15.444;2023-05-20T02:24:39;0.10;;;0.10;;
22841;SDS011;11587;47.064;15.444;2023-05-20T02:27:07;0.20;;;0.20;;
22841;SDS011;11587;47.064;15.444;2023-05-20T02:29:33;0.10;;;0.10;;
22841;SDS011;11587;47.064;15.444;2023-05-20T02:31:59;0.20;;;0.20;;
22841;SDS011;11587;47.064;15.444;2023-05-20T02:34:26;0.10;;;0.10;;
22841;SDS011;11587;47.064;15.444;2023-05-20T02:36:54;0.10;;;0.10;;
22841;SDS011;11587;47.064;15.444;2023-05-20T02:39:20;0.10;;;0.10;;
22841;SDS011;11587;47.064;15.444;2023-05-20T02:41:46;0.10;;;0.10;;
22841;SDS011;11587;47.064;15.444;2023-05-20T02:44:13;0.20;;;0.20;;
22841;SDS011;11587;47.064;15.444;2023-05-20T02:46:39;0.10;;;0.10;;
22841;SDS011;11587;47.064;15.444;2023-05-20T02:49:05;0.10;;;0.10;;
22841;SDS011;11587;47.064;15.444;2023-05-20T02:51:31;0.10;;;0.10;;
22841;SDS011;11587;47.064;15.444;2023-05-20T02:53:57;0.10;;;0.10;;
22841;SDS011;11587;47.064;15.444;2023-05-20T02:56:23;0.10;;;0.10;;
22841;SDS011;11587;47.064;15.444;2023-05-20T02:58:51;0.10;;;0.10;;
22841;SDS011;11587;47.064;15.444;2023-05-20T03:01:17;0.10;;;0.10;;
22841;SDS011;11587;47.064;15.444;2023-05-20T03:03:43;0.10;;;0.10;;
22841;SDS011;11587;47.064;15.444;2023-05-20T03:06:08;0.10;;;0.10;;
22841;SDS011;11587;47.064;15.444;2023-05-20T03:08:35;0.10;;;0.10;;
22841;SDS011;11587;47.064;15.444;2023-05-20T03:11:01;0.10;;;0.10;;
22841;SDS011;11587;47.064;15.444;2023-05-20T03:13:27;0.10;;;0.10;;
22841;SDS011;11587;47.064;15.444;2023-05-20T03:15:53;0.10;;;0.10;;
22841;SDS011;11587;47.064;15.444;2023-05-20T03:18:19;0.10;;;0.10;;
22841;SDS011;11587;47.064;15.444;2023-05-20T03:20:45;0.10;;;0.10;;
22841;SDS011;11587;47.064;15.444;2023-05-20T03:23:12;0.10;;;0.10;;
22841;SDS011;11587;47.064;15.444;2023-05-20T03:25:39;0.10;;;0.10;;
22841;SDS011;11587;47.064;15.444;2023-05-20T03:28:05;0.10;;;0.10;;
22841;SDS011;11587;47.064;15.444;2023-05-20T03:30:31;0.10;;;0.10;;
22841;SDS011;11587;47.064;15.444;2023-05-20T03:32:57;0.10;;;0.10;;
22841;SDS011;11587;47.064;15.444;2023-05-20T03:35:24;0.10;;;0.10;;
22841;SDS011;11587;47.064;15.444;2023-05-20T03:37:50;0.10;;;0.10;;
22841;SDS011;11587;47.064;15.444;2023-05-20T03:40:17;0.20;;;0.20;;
22841;SDS011;11587;47.064;15.444;2023-05-20T03:42:44;0.10;;;0.10;;
22841;SDS011;11587;47.064;15.444;2023-05-20T03:45:10;0.20;;;0.20;;
22841;SDS011;11587;47.064;15.444;2023-05-20T03:47:36;0.10;;;0.10;;
22841;SDS011;11587;47.064;15.444;2023-05-20T03:50:02;0.10;;;0.10;;
22841;SDS011;11587;47.064;15.444;2023-05-20T03:52:29;0.20;;;0.20;;
22841;SDS011;11587;47.064;15.444;2023-05-20T03:54:55;0.13;;;0.13;;
22841;SDS011;11587;47.064;15.444;2023-05-20T03:57:21;0.20;;;0.20;;
22841;SDS011;11587;47.064;15.444;2023-05-20T03:59:47;0.10;;;0.10;;
22841;SDS011;11587;47.064;15.444;2023-05-20T04:02:13;0.20;;;0.20;;
22841;SDS011;11587;47.064;15.444;2023-05-20T04:04:40;0.20;;;0.20;;
22841;SDS011;11587;47.064;15.444;2023-05-20T04:07:09;0.10;;;0.10;;
22841;SDS011;11587;47.064;15.444;2023-05-20T04:09:35;0.10;;;0.10;;
22841;SDS011;11587;47.064;15.444;2023-05-20T04:12:01;0.10;;;0.10;;
22841;SDS011;11587;47.064;15.444;2023-05-20T04:14:27;0.20;;;0.20;;
22841;SDS011;11587;47.064;15.444;2023-05-20T04:16:53;0.10;;;0.10;;
22841;SDS011;11587;47.064;15.444;2023-05-20T04:19:20;0.10;;;0.10;;
22841;SDS011;11587;47.064;15.444;2023-05-20T04:21:48;0.10;;;0.10;;
22841;SDS011;11587;47.064;15.444;2023-05-20T04:24:14;0.10;;;0.10;;
22841;SDS011;11587;47.064;15.444;2023-05-20T04:26:40;0.10;;;0.10;;
22841;SDS011;11587;47.064;15.444;2023-05-20T04:29:06;0.10;;;0.10;;
22841;SDS011;11587;47.064;15.444;2023-05-20T04:31:32;0.10;;;0.10;;
22841;SDS011;11587;47.064;15.444;2023-05-20T04:33:58;0.10;;;0.10;;
22841;SDS011;11587;47.064;15.444;2023-05-20T04:36:24;0.10;;;0.10;;
22841;SDS011;11587;47.064;15.444;2023-05-20T04:38:55;0.10;;;0.10;;
22841;SDS011;11587;47.064;15.444;2023-05-20T04:41:21;0.10;;;0.10;;
22841;SDS011;11587;47.064;15.444;2023-05-20T04:43:48;0.10;;;0.10;;
22841;SDS011;11587;47.064;15.444;2023-05-20T04:46:14;0.10;;;0.10;;
22841;SDS011;11587;47.064;15.444;2023-05-20T04:48:40;0.10;;;0.10;;
22841;SDS011;11587;47.064;15.444;2023-05-20T04:51:08;0.10;;;0.10;;
22841;SDS011;11587;47.064;15.444;2023-05-20T04:53:34;0.10;;;0.10;;
22841;SDS011;11587;47.064;15.444;2023-05-20T04:56:00;0.10;;;0.10;;
22841;SDS011;11587;47.064;15.444;2023-05-20T04:58:27;0.10;;;0.10;;
22841;SDS011;11587;47.064;15.444;2023-05-20T05:00:53;0.10;;;0.10;;
22841;SDS011;11587;47.064;15.444;2023-05-20T05:03:20;0.10;;;0.10;;
22841;SDS011;11587;47.064;15.444;2023-05-20T05:05:46;0.10;;;0.10;;
22841;SDS011;11587;47.064;15.444;2023-05-20T05:08:12;0.10;;;0.10;;
22841;SDS011;11587;47.064;15.444;2023-05-20T05:10:38;0.10;;;0.10;;
22841;SDS011;11587;47.064;15.444;2023-05-20T05:13:04;0.10;;;0.10;;
22841;SDS011;11587;47.064;15.444;2023-05-20T05:15:30;0.10;;;0.10;;
22841;SDS011;11587;47.064;15.444;2023-05-20T05:17:56;0.10;;;0.10;;
22841;SDS011;11587;47.064;15.444;2023-05-20T05:20:22;0.20;;;0.20;;
22841;SDS011;11587;47.064;15.444;2023-05-20T05:22:48;0.10;;;0.10;;
22841;SDS011;11587;47.064;15.444;2023-05-20T05:25:15;0.10;;;0.10;;
22841;SDS011;11587;47.064;15.444;2023-05-20T05:27:41;0.10;;;0.10;;
22841;SDS011;11587;47.064;15.444;2023-05-20T05:30:08;0.10;;;0.10;;
22841;SDS011;11587;47.064;15.444;2023-05-20T05:32:35;0.10;;;0.10;;
22841;SDS011;11587;47.064;15.444;2023-05-20T05:35:02;0.20;;;0.20;;
22841;SDS011;11587;47.064;15.444;2023-05-20T05:37:28;0.10;;;0.10;;
22841;SDS011;11587;47.064;15.444;2023-05-20T05:39:54;0.10;;;0.10;;
22841;SDS011;11587;47.064;15.444;2023-05-20T05:42:20;0.20;;;0.20;;
22841;SDS011;11587;47.064;15.444;2023-05-20T05:44:46;0.10;;;0.10;;
22841;SDS011;11587;47.064;15.444;2023-05-20T05:47:12;0.10;;;0.10;;
22841;SDS011;11587;47.064;15.444;2023-05-20T05:49:38;0.10;;;0.10;;
22841;SDS011;11587;47.064;15.444;2023-05-20T05:52:05;0.10;;;0.10;;
22841;SDS011;11587;47.064;15.444;2023-05-20T05:54:31;0.10;;;0.10;;
22841;SDS011;11587;47.064;15.444;2023-05-20T05:56:57;0.10;;;0.10;;
22841;SDS011;11587;47.064;15.444;2023-05-20T05:59:23;0.20;;;0.20;;
22841;SDS011;11587;47.064;15.444;2023-05-20T06:01:49;0.10;;;0.10;;
22841;SDS011;11587;47.064;15.444;2023-05-20T06:04:15;0.10;;;0.10;;
22841;SDS011;11587;47.064;15.444;2023-05-20T06:06:41;0.13;;;0.13;;
22841;SDS011;11587;47.064;15.444;2023-05-20T06:09:07;0.10;;;0.10;;
22841;SDS011;11587;47.064;15.444;2023-05-20T06:11:33;0.10;;;0.10;;
22841;SDS011;11587;47.064;15.444;2023-05-20T06:14:00;0.17;;;0.17;;
22841;SDS011;11587;47.064;15.444;2023-05-20T06:16:26;0.10;;;0.10;;
22841;SDS011;11587;47.064;15.444;2023-05-20T06:18:52;0.17;;;0.17;;
22841;SDS011;11587;47.064;15.444;2023-05-20T06:21:21;0.10;;;0.10;;
22841;SDS011;11587;47.064;15.444;2023-05-20T06:23:47;0.10;;;0.10;;
22841;SDS011;11587;47.064;15.444;2023-05-20T06:26:13;0.10;;;0.10;;
22841;SDS011;11587;47.064;15.444;2023-05-20T06:28:39;0.10;;;0.10;;
22841;SDS011;11587;47.064;15.444;2023-05-20T06:31:05;0.10;;;0.10;;
22841;SDS011;11587;47.064;15.444;2023-05-20T06:33:31;0.10;;;0.10;;
22841;SDS011;11587;47.064;15.444;2023-05-20T06:35:57;0.20;;;0.20;;
22841;SDS011;11587;47.064;15.444;2023-05-20T06:38:25;0.10;;;0.10;;
22841;SDS011;11587;47.064;15.444;2023-05-20T06:40:51;0.10;;;0.10;;
22841;SDS011;11587;47.064;15.444;2023-05-20T06:43:17;0.10;;;0.10;;
22841;SDS011;11587;47.064;15.444;2023-05-20T06:45:43;0.10;;;0.10;;
22841;SDS011;11587;47.064;15.444;2023-05-20T06:48:09;0.10;;;0.10;;
22841;SDS011;11587;47.064;15.444;2023-05-20T06:50:35;0.10;;;0.10;;
22841;SDS011;11587;47.064;15.444;2023-05-20T06:53:01;0.10;;;0.10;;
22841;SDS011;11587;47.064;15.444;2023-05-20T06:55:28;0.10;;;0.10;;
22841;SDS011;11587;47.064;15.444;2023-05-20T06:57:54;0.10;;;0.10;;
22841;SDS011;11587;47.064;15.444;2023-05-20T07:00:20;0.10;;;0.10;;
22841;SDS011;11587;47.064;15.444;2023-05-20T07:02:46;0.10;;;0.10;;
22841;SDS011;11587;47.064;15.444;2023-05-20T07:05:12;0.10;;;0.10;;
22841;SDS011;11587;47.064;15.444;2023-05-20T07:07:39;0.10;;;0.10;;
22841;SDS011;11587;47.064;15.444;2023-05-20T07:10:05;0.10;;;0.10;;
22841;SDS011;11587;47.064;15.444;2023-05-20T07:12:31;0.10;;;0.10;;
22841;SDS011;11587;47.064;15.444;2023-05-20T07:14:58;0.10;;;0.10;;
22841;SDS011;11587;47.064;15.444;2023-05-20T07:17:24;0.10;;;0.10;;
22841;SDS011;11587;47.064;15.444;2023-05-20T07:19:50;0.10;;;0.10;;
22841;SDS011;11587;47.064;15.444;2023-05-20T07:22:16;0.10;;;0.10;;
22841;SDS011;11587;47.064;15.444;2023-05-20T07:24:42;0.10;;;0.10;;
22841;SDS011;11587;47.064;15.444;2023-05-20T07:27:08;0.10;;;0.10;;
22841;SDS011;11587;47.064;15.444;2023-05-20T07:29:35;0.10;;;0.10;;
22841;SDS011;11587;47.064;15.444;2023-05-20T07:32:01;0.10;;;0.10;;
22841;SDS011;11587;47.064;15.444;2023-05-20T07:34:28;0.10;;;0.10;;
22841;SDS011;11587;47.064;15.444;2023-05-20T07:36:54;0.10;;;0.10;;
22841;SDS011;11587;47.064;15.444;2023-05-20T07:39:20;0.10;;;0.10;;
22841;SDS011;11587;47.064;15.444;2023-05-20T07:41:47;0.10;;;0.10;;
22841;SDS011;11587;47.064;15.444;2023-05-20T07:44:13;0.10;;;0.10;;
22841;SDS011;11587;47.064;15.444;2023-05-20T07:46:39;0.10;;;0.10;;
22841;SDS011;11587;47.064;15.444;2023-05-20T07:49:06;0.10;;;0.10;;
22841;SDS011;11587;47.064;15.444;2023-05-20T07:51:32;0.10;;;0.10;;
22841;SDS011;11587;47.064;15.444;2023-05-20T07:53:58;0.10;;;0.10;;
22841;SDS011;11587;47.064;15.444;2023-05-20T07:56:24;0.10;;;0.10;;
22841;SDS011;11587;47.064;15.444;2023-05-20T07:58:55;0.10;;;0.10;;
22841;SDS011;11587;47.064;15.444;2023-05-20T08:01:22;0.10;;;0.10;;
22841;SDS011;11587;47.064;15.444;2023-05-20T08:03:48;0.00;;;0.00;;
22841;SDS011;11587;47.064;15.444;2023-05-20T08:06:14;0.00;;;0.00;;
22841;SDS011;11587;47.064;15.444;2023-05-20T08:08:41;0.00;;;0.00;;
22841;SDS011;11587;47.064;15.444;2023-05-20T08:11:07;0.00;;;0.00;;
22841;SDS011;11587;47.064;15.444;2023-05-20T08:13:33;0.00;;;0.00;;
22841;SDS011;11587;47.064;15.444;2023-05-20T08:16:00;0.00;;;0.00;;
22841;SDS011;11587;47.064;15.444;2023-05-20T08:18:27;0.00;;;0.00;;
22841;SDS011;11587;47.064;15.444;2023-05-20T08:20:54;0.00;;;0.00;;
22841;SDS011;11587;47.064;15.444;2023-05-20T08:23:20;0.10;;;0.10;;
22841;SDS011;11587;47.064;15.444;2023-05-20T08:25:46;0.10;;;0.10;;
22841;SDS011;11587;47.064;15.444;2023-05-20T08:28:12;0.10;;;0.10;;
22841;SDS011;11587;47.064;15.444;2023-05-20T08:30:38;0.10;;;0.10;;
22841;SDS011;11587;47.064;15.444;2023-05-20T08:33:05;0.10;;;0.10;;
22841;SDS011;11587;47.064;15.444;2023-05-20T08:35:31;0.10;;;0.10;;
22841;SDS011;11587;47.064;15.444;2023-05-20T08:37:57;0.10;;;0.10;;
22841;SDS011;11587;47.064;15.444;2023-05-20T08:40:23;0.00;;;0.00;;
22841;SDS011;11587;47.064;15.444;2023-05-20T08:42:50;0.00;;;0.00;;
22841;SDS011;11587;47.064;15.444;2023-05-20T08:45:20;0.00;;;0.00;;
22841;SDS011;11587;47.064;15.444;2023-05-20T08:47:50;0.10;;;0.10;;
22841;SDS011;11587;47.064;15.444;2023-05-20T08:50:16;0.10;;;0.10;;
22841;SDS011;11587;47.064;15.444;2023-05-20T08:52:43;0.10;;;0.10;;
22841;SDS011;11587;47.064;15.444;2023-05-20T08:57:54;0.10;;;0.10;;
22841;SDS011;11587;47.064;15.444;2023-05-20T09:00:22;0.10;;;0.10;;
22841;SDS011;11587;47.064;15.444;2023-05-20T09:02:52;0.00;;;0.00;;
22841;SDS011;11587;47.064;15.444;2023-05-20T09:05:18;0.00;;;0.00;;
22841;SDS011;11587;47.064;15.444;2023-05-20T09:07:45;0.10;;;0.10;;
22841;SDS011;11587;47.064;15.444;2023-05-20T09:10:11;0.00;;;0.00;;
22841;SDS011;11587;47.064;15.444;2023-05-20T09:12:37;0.00;;;0.00;;
22841;SDS011;11587;47.064;15.444;2023-05-20T09:15:04;0.05;;;0.05;;
22841;SDS011;11587;47.064;15.444;2023-05-20T09:17:30;0.05;;;0.05;;
22841;SDS011;11587;47.064;15.444;2023-05-20T09:19:56;0.00;;;0.00;;
22841;SDS011;11587;47.064;15.444;2023-05-20T09:22:22;0.10;;;0.10;;
22841;SDS011;11587;47.064;15.444;2023-05-20T09:24:49;0.00;;;0.00;;
22841;SDS011;11587;47.064;15.444;2023-05-20T09:27:16;0.00;;;0.00;;
22841;SDS011;11587;47.064;15.444;2023-05-20T09:29:42;0.00;;;0.00;;
22841;SDS011;11587;47.064;15.444;2023-05-20T09:32:11;0.00;;;0.00;;
22841;SDS011;11587;47.064;15.444;2023-05-20T09:34:37;0.00;;;0.00;;
22841;SDS011;11587;47.064;15.444;2023-05-20T09:37:04;0.03;;;0.03;;
22841;SDS011;11587;47.064;15.444;2023-05-20T09:39:33;0.00;;;0.00;;
22841;SDS011;11587;47.064;15.444;2023-05-20T09:42:01;0.00;;;0.00;;
22841;SDS011;11587;47.064;15.444;2023-05-20T09:44:30;0.00;;;0.00;;
22841;SDS011;11587;47.064;15.444;2023-05-20T09:46:57;0.00;;;0.00;;
22841;SDS011;11587;47.064;15.444;2023-05-20T09:49:25;0.00;;;0.00;;
22841;SDS011;11587;47.064;15.444;2023-05-20T09:51:51;0.00;;;0.00;;
22841;SDS011;11587;47.064;15.444;2023-05-20T09:54:18;0.00;;;0.00;;
22841;SDS011;11587;47.064;15.444;2023-05-20T09:56:45;0.00;;;0.00;;
22841;SDS011;11587;47.064;15.444;2023-05-20T09:59:12;0.00;;;0.00;;
22841;SDS011;11587;47.064;15.444;2023-05-20T10:01:41;0.00;;;0.00;;
22841;SDS011;11587;47.064;15.444;2023-05-20T10:04:07;0.00;;;0.00;;
22841;SDS011;11587;47.064;15.444;2023-05-20T10:12:18;0.00;;;0.00;;
22841;SDS011;11587;47.064;15.444;2023-05-20T10:17:23;0.00;;;0.00;;
22841;SDS011;11587;47.064;15.444;2023-05-20T10:19:56;0.00;;;0.00;;
22841;SDS011;11587;47.064;15.444;2023-05-20T10:22:28;0.00;;;0.00;;
22841;SDS011;11587;47.064;15.444;2023-05-20T10:24:58;0.00;;;0.00;;
22841;SDS011;11587;47.064;15.444;2023-05-20T10:27:24;0.00;;;0.00;;
22841;SDS011;11587;47.064;15.444;2023-05-20T10:29:51;0.00;;;0.00;;
22841;SDS011;11587;47.064;15.444;2023-05-20T10:32:27;0.00;;;0.00;;
22841;SDS011;11587;47.064;15.444;2023-05-20T10:35:06;0.00;;;0.00;;
22841;SDS011;11587;47.064;15.444;2023-05-20T10:37:43;0.00;;;0.00;;
22841;SDS011;11587;47.064;15.444;2023-05-20T10:40:13;0.00;;;0.00;;
22841;SDS011;11587;47.064;15.444;2023-05-20T10:42:40;0.00;;;0.00;;
22841;SDS011;11587;47.064;15.444;2023-05-20T10:45:06;0.00;;;0.00;;
22841;SDS011;11587;47.064;15.444;2023-05-20T10:47:32;0.00;;;0.00;;
22841;SDS011;11587;47.064;15.444;2023-05-20T10:49:59;0.00;;;0.00;;
22841;SDS011;11587;47.064;15.444;2023-05-20T10:52:33;0.00;;;0.00;;
22841;SDS011;11587;47.064;15.444;2023-05-20T10:55:01;0.00;;;0.00;;
22841;SDS011;11587;47.064;15.444;2023-05-20T10:57:28;0.00;;;0.00;;
22841;SDS011;11587;47.064;15.444;2023-05-20T10:59:55;0.00;;;0.00;;
22841;SDS011;11587;47.064;15.444;2023-05-20T11:02:21;0.00;;;0.00;;
22841;SDS011;11587;47.064;15.444;2023-05-20T11:04:50;0.00;;;0.00;;
22841;SDS011;11587;47.064;15.444;2023-05-20T11:07:29;0.00;;;0.00;;
22841;SDS011;11587;47.064;15.444;2023-05-20T11:09:56;0.00;;;0.00;;
22841;SDS011;11587;47.064;15.444;2023-05-20T11:12:22;0.00;;;0.00;;
22841;SDS011;11587;47.064;15.444;2023-05-20T11:14:49;0.00;;;0.00;;
22841;SDS011;11587;47.064;15.444;2023-05-20T11:17:15;0.00;;;0.00;;
22841;SDS011;11587;47.064;15.444;2023-05-20T11:19:41;0.00;;;0.00;;
22841;SDS011;11587;47.064;15.444;2023-05-20T11:22:07;0.00;;;0.00;;
22841;SDS011;11587;47.064;15.444;2023-05-20T11:24:33;0.00;;;0.00;;
22841;SDS011;11587;47.064;15.444;2023-05-20T11:27:00;0.00;;;0.00;;
22841;SDS011;11587;47.064;15.444;2023-05-20T11:29:26;0.00;;;0.00;;
22841;SDS011;11587;47.064;15.444;2023-05-20T11:31:59;0.00;;;0.00;;
22841;SDS011;11587;47.064;15.444;2023-05-20T11:34:25;0.00;;;0.00;;
22841;SDS011;11587;47.064;15.444;2023-05-20T11:36:57;0.00;;;0.00;;
22841;SDS011;11587;47.064;15.444;2023-05-20T11:39:23;0.00;;;0.00;;
22841;SDS011;11587;47.064;15.444;2023-05-20T11:41:51;0.00;;;0.00;;
22841;SDS011;11587;47.064;15.444;2023-05-20T11:44:18;0.00;;;0.00;;
22841;SDS011;11587;47.064;15.444;2023-05-20T11:46:45;0.00;;;0.00;;
22841;SDS011;11587;47.064;15.444;2023-05-20T11:49:12;0.00;;;0.00;;
22841;SDS011;11587;47.064;15.444;2023-05-20T11:51:38;0.00;;;0.00;;
22841;SDS011;11587;47.064;15.444;2023-05-20T11:54:05;0.00;;;0.00;;
22841;SDS011;11587;47.064;15.444;2023-05-20T11:56:35;0.00;;;0.00;;
22841;SDS011;11587;47.064;15.444;2023-05-20T11:59:02;0.00;;;0.00;;
22841;SDS011;11587;47.064;15.444;2023-05-20T12:01:31;0.00;;;0.00;;
22841;SDS011;11587;47.064;15.444;2023-05-20T12:03:58;0.00;;;0.00;;
22841;SDS011;11587;47.064;15.444;2023-05-20T12:06:24;0.00;;;0.00;;
22841;SDS011;11587;47.064;15.444;2023-05-20T12:08:50;0.00;;;0.00;;
22841;SDS011;11587;47.064;15.444;2023-05-20T12:11:16;0.00;;;0.00;;
22841;SDS011;11587;47.064;15.444;2023-05-20T12:13:42;0.00;;;0.00;;
22841;SDS011;11587;47.064;15.444;2023-05-20T12:16:08;0.00;;;0.00;;
22841;SDS011;11587;47.064;15.444;2023-05-20T12:18:34;0.00;;;0.00;;
22841;SDS011;11587;47.064;15.444;2023-05-20T12:21:00;0.00;;;0.00;;
22841;SDS011;11587;47.064;15.444;2023-05-20T12:23:26;0.00;;;0.00;;
22841;SDS011;11587;47.064;15.444;2023-05-20T12:25:54;0.00;;;0.00;;
22841;SDS011;11587;47.064;15.444;2023-05-20T12:28:20;0.00;;;0.00;;
22841;SDS011;11587;47.064;15.444;2023-05-20T12:30:46;0.00;;;0.00;;
22841;SDS011;11587;47.064;15.444;2023-05-20T12:33:12;0.00;;;0.00;;
22841;SDS011;11587;47.064;15.444;2023-05-20T12:35:39;0.00;;;0.00;;
22841;SDS011;11587;47.064;15.444;2023-05-20T12:38:05;0.00;;;0.00;;
22841;SDS011;11587;47.064;15.444;2023-05-20T12:40:31;0.00;;;0.00;;
22841;SDS011;11587;47.064;15.444;2023-05-20T12:42:59;0.00;;;0.00;;
22841;SDS011;11587;47.064;15.444;2023-05-20T12:45:25;0.00;;;0.00;;
22841;SDS011;11587;47.064;15.444;2023-05-20T12:47:51;0.00;;;0.00;;
22841;SDS011;11587;47.064;15.444;2023-05-20T12:50:17;0.00;;;0.00;;
22841;SDS011;11587;47.064;15.444;2023-05-20T12:52:43;0.00;;;0.00;;
22841;SDS011;11587;47.064;15.444;2023-05-20T12:55:09;0.00;;;0.00;;
22841;SDS011;11587;47.064;15.444;2023-05-20T12:57:44;0.00;;;0.00;;
22841;SDS011;11587;47.064;15.444;2023-05-20T13:00:10;0.00;;;0.00;;
22841;SDS011;11587;47.064;15.444;2023-05-20T13:02:37;0.00;;;0.00;;
22841;SDS011;11587;47.064;15.444;2023-05-20T13:05:03;0.00;;;0.00;;
22841;SDS011;11587;47.064;15.444;2023-05-20T13:07:30;0.00;;;0.00;;
22841;SDS011;11587;47.064;15.444;2023-05-20T13:09:57;0.00;;;0.00;;
22841;SDS011;11587;47.064;15.444;2023-05-20T13:12:23;0.00;;;0.00;;
22841;SDS011;11587;47.064;15.444;2023-05-20T13:14:49;0.00;;;0.00;;
22841;SDS011;11587;47.064;15.444;2023-05-20T13:17:15;0.00;;;0.00;;
22841;SDS011;11587;47.064;15.444;2023-05-20T13:19:41;0.00;;;0.00;;
22841;SDS011;11587;47.064;15.444;2023-05-20T13:22:08;0.00;;;0.00;;
22841;SDS011;11587;47.064;15.444;2023-05-20T13:24:34;0.00;;;0.00;;
22841;SDS011;11587;47.064;15.444;2023-05-20T13:27:00;0.00;;;0.00;;
22841;SDS011;11587;47.064;15.444;2023-05-20T13:29:26;0.00;;;0.00;;
22841;SDS011;11587;47.064;15.444;2023-05-20T13:31:52;0.00;;;0.00;;
22841;SDS011;11587;47.064;15.444;2023-05-20T13:34:18;0.00;;;0.00;;
22841;SDS011;11587;47.064;15.444;2023-05-20T13:36:44;0.00;;;0.00;;
22841;SDS011;11587;47.064;15.444;2023-05-20T13:39:12;0.00;;;0.00;;
22841;SDS011;11587;47.064;15.444;2023-05-20T13:41:38;0.00;;;0.00;;
22841;SDS011;11587;47.064;15.444;2023-05-20T13:44:04;0.00;;;0.00;;
22841;SDS011;11587;47.064;15.444;2023-05-20T13:46:30;0.00;;;0.00;;
22841;SDS011;11587;47.064;15.444;2023-05-20T13:48:56;0.00;;;0.00;;
22841;SDS011;11587;47.064;15.444;2023-05-20T13:51:22;0.00;;;0.00;;
22841;SDS011;11587;47.064;15.444;2023-05-20T13:53:48;0.00;;;0.00;;
22841;SDS011;11587;47.064;15.444;2023-05-20T13:56:14;0.00;;;0.00;;
22841;SDS011;11587;47.064;15.444;2023-05-20T13:58:40;0.00;;;0.00;;
22841;SDS011;11587;47.064;15.444;2023-05-20T14:01:06;0.00;;;0.00;;
22841;SDS011;11587;47.064;15.444;2023-05-20T14:03:32;0.00;;;0.00;;
22841;SDS011;11587;47.064;15.444;2023-05-20T14:05:59;0.00;;;0.00;;
22841;SDS011;11587;47.064;15.444;2023-05-20T14:08:26;0.00;;;0.00;;
22841;SDS011;11587;47.064;15.444;2023-05-20T14:10:52;0.00;;;0.00;;
22841;SDS011;11587;47.064;15.444;2023-05-20T14:13:22;0.00;;;0.00;;
22841;SDS011;11587;47.064;15.444;2023-05-20T14:15:49;0.00;;;0.00;;
22841;SDS011;11587;47.064;15.444;2023-05-20T14:18:15;0.00;;;0.00;;
22841;SDS011;11587;47.064;15.444;2023-05-20T14:20:42;0.00;;;0.00;;
22841;SDS011;11587;47.064;15.444;2023-05-20T14:23:08;0.00;;;0.00;;
22841;SDS011;11587;47.064;15.444;2023-05-20T14:25:34;0.00;;;0.00;;
22841;SDS011;11587;47.064;15.444;2023-05-20T14:28:00;0.00;;;0.00;;
22841;SDS011;11587;47.064;15.444;2023-05-20T14:30:26;0.00;;;0.00;;
22841;SDS011;11587;47.064;15.444;2023-05-20T14:32:52;0.00;;;0.00;;
22841;SDS011;11587;47.064;15.444;2023-05-20T14:35:18;0.00;;;0.00;;
22841;SDS011;11587;47.064;15.444;2023-05-20T14:37:44;0.00;;;0.00;;
22841;SDS011;11587;47.064;15.444;2023-05-20T14:40:10;0.00;;;0.00;;
22841;SDS011;11587;47.064;15.444;2023-05-20T14:42:36;0.00;;;0.00;;